createdAt,value
2019-01-15T00:04:32.297Z,2.30
2019-01-15T00:10:36.893Z,4.17
2019-01-15T00:16:41.448Z,3.60
2019-01-15T00:22:45.986Z,3.00
2019-01-15T00:28:50.520Z,2.10
2019-01-15T00:34:55.133Z,3.37
2019-01-15T00:40:59.693Z,2.57
2019-01-15T00:47:04.281Z,2.23
2019-01-15T00:53:08.830Z,2.37
2019-01-15T00:59:13.368Z,2.70
2019-01-15T01:05:18.138Z,2.30
2019-01-15T01:11:22.684Z,2.50
2019-01-15T01:17:27.315Z,3.07
2019-01-15T01:23:31.850Z,2.00
2019-01-15T01:29:36.455Z,2.93
2019-01-15T01:35:41.077Z,3.93
2019-01-15T01:41:45.615Z,4.13
2019-01-15T01:47:50.219Z,3.10
2019-01-15T01:53:54.771Z,2.60
2019-01-15T01:59:59.330Z,2.80
2019-01-15T02:06:03.963Z,2.50
2019-01-15T02:12:08.502Z,4.00
2019-01-15T02:18:13.043Z,2.50
2019-01-15T02:24:18.039Z,3.00
2019-01-15T02:30:25.084Z,2.13
2019-01-15T02:36:29.690Z,1.87
2019-01-15T02:42:34.983Z,2.73
2019-01-15T02:48:39.514Z,2.53
2019-01-15T02:54:44.041Z,4.20
2019-01-15T03:00:48.648Z,2.50
2019-01-15T03:06:53.180Z,2.83
2019-01-15T03:12:57.789Z,3.30
2019-01-15T03:19:02.314Z,1.80
2019-01-15T03:25:10.455Z,2.87
2019-01-15T03:31:15.067Z,2.17
2019-01-15T03:37:19.609Z,2.60
2019-01-15T03:43:24.144Z,2.40
2019-01-15T03:49:28.679Z,2.77
2019-01-15T03:55:33.289Z,6.80
2019-01-15T04:01:37.857Z,3.40
2019-01-15T04:07:43.373Z,3.10
2019-01-15T04:13:48.441Z,2.63
2019-01-15T04:19:52.971Z,2.37
2019-01-15T04:25:57.508Z,3.77
2019-01-15T04:32:03.827Z,2.37
2019-01-15T04:38:08.425Z,2.20
2019-01-15T04:44:12.961Z,2.50
2019-01-15T04:50:18.336Z,2.30
2019-01-15T04:56:22.861Z,1.80
2019-01-15T05:02:27.426Z,3.27
2019-01-15T05:08:32.029Z,5.00
2019-01-15T05:14:36.569Z,2.60
2019-01-15T05:20:42.733Z,2.73
2019-01-15T05:26:47.265Z,2.90
2019-01-15T05:32:51.943Z,2.90
2019-01-15T05:38:56.474Z,3.27
2019-01-15T05:45:01.239Z,3.40
2019-01-15T05:51:10.605Z,2.30
2019-01-15T05:57:15.151Z,3.10
2019-01-15T06:03:19.683Z,2.77
2019-01-15T06:09:24.207Z,3.00
2019-01-15T06:15:28.815Z,3.97
2019-01-15T06:21:33.437Z,2.67
2019-01-15T06:27:38.109Z,4.10
2019-01-15T06:33:42.643Z,6.23
2019-01-15T06:39:47.173Z,2.87
2019-01-15T06:45:51.698Z,2.93
2019-01-15T06:51:56.263Z,3.03
2019-01-15T06:58:00.779Z,3.53
2019-01-15T07:04:05.735Z,2.97
2019-01-15T07:10:23.581Z,2.33
2019-01-15T07:16:28.900Z,3.20
2019-01-15T07:22:33.501Z,2.20
2019-01-15T07:28:38.023Z,2.30
2019-01-15T07:34:42.624Z,2.63
2019-01-15T07:40:47.154Z,2.30
2019-01-15T07:46:51.686Z,3.63
2019-01-15T07:52:56.298Z,3.30
2019-01-15T07:59:00.837Z,3.90
2019-01-15T08:05:09.197Z,4.20
2019-01-15T08:11:13.723Z,3.23
2019-01-15T08:17:18.254Z,3.40
2019-01-15T08:23:22.793Z,3.30
2019-01-15T08:29:27.316Z,3.93
2019-01-15T08:35:31.912Z,4.10
2019-01-15T08:41:36.456Z,4.77
2019-01-15T08:47:54.315Z,4.30
2019-01-15T08:53:59.152Z,4.07
2019-01-15T09:00:03.748Z,4.13
2019-01-15T09:06:08.445Z,5.07
2019-01-15T09:12:13.034Z,3.73
2019-01-15T09:18:17.637Z,4.70
2019-01-15T09:24:22.169Z,5.07
2019-01-15T09:30:26.705Z,5.23
2019-01-15T09:36:31.230Z,6.00
2019-01-15T09:42:35.839Z,6.10
2019-01-15T09:48:40.648Z,6.33
2019-01-15T09:54:45.184Z,6.73
2019-01-15T10:00:49.727Z,7.60
2019-01-15T10:06:54.259Z,9.30
2019-01-15T10:12:58.870Z,8.10
2019-01-15T10:19:03.418Z,8.17
2019-01-15T10:25:11.212Z,9.50
2019-01-15T10:31:41.092Z,9.83
2019-01-15T10:37:45.699Z,8.80
2019-01-15T10:43:50.240Z,10.30
2019-01-15T10:49:54.800Z,9.33
2019-01-15T10:56:00.874Z,10.40
2019-01-15T11:02:06.212Z,10.47
2019-01-15T11:08:10.896Z,8.73
2019-01-15T11:14:17.199Z,8.33
2019-01-15T11:20:23.240Z,8.20
2019-01-15T11:26:27.788Z,8.87
2019-01-15T11:32:32.364Z,8.30
2019-01-15T11:38:36.903Z,8.20
2019-01-15T11:44:41.434Z,7.77
2019-01-15T11:50:45.975Z,7.80
2019-01-15T11:56:50.509Z,7.10
2019-01-15T12:03:02.639Z,6.93
2019-01-15T12:09:11.897Z,5.33
2019-01-15T12:15:18.063Z,5.60
2019-01-15T12:21:32.960Z,4.47
2019-01-15T12:27:42.010Z,6.20
2019-01-15T12:33:50.637Z,4.87
2019-01-15T12:39:59.830Z,5.53
2019-01-15T12:46:18.138Z,5.40
2019-01-15T12:52:42.505Z,5.13
2019-01-15T12:58:57.131Z,5.47
2019-01-15T13:05:08.721Z,6.30
2019-01-15T13:11:30.488Z,4.63
2019-01-15T13:17:39.217Z,5.83
2019-01-15T13:23:45.391Z,6.10
2019-01-15T13:29:51.578Z,6.90
2019-01-15T13:36:13.609Z,6.07
2019-01-15T13:42:21.296Z,7.20
2019-01-15T13:48:33.575Z,4.37
2019-01-15T13:54:48.907Z,8.20
2019-01-15T14:00:55.091Z,5.73
2019-01-15T14:07:16.946Z,5.13
2019-01-15T14:13:25.537Z,5.33
2019-01-15T14:19:31.750Z,6.53
2019-01-15T14:25:37.929Z,6.33
2019-01-15T14:31:44.101Z,7.83
2019-01-15T14:37:53.052Z,7.13
2019-01-15T14:43:57.732Z,7.53
2019-01-15T14:50:03.939Z,5.70
2019-01-15T14:56:18.848Z,12.30
2019-01-15T15:02:41.244Z,6.00
2019-01-15T15:09:02.977Z,6.80
2019-01-15T15:15:18.420Z,6.27
2019-01-15T15:21:39.244Z,6.70
2019-01-15T15:27:50.958Z,6.00
2019-01-15T15:33:57.154Z,5.73
2019-01-15T15:40:19.385Z,8.77
2019-01-15T15:46:28.288Z,7.40
2019-01-15T15:52:50.412Z,8.00
2019-01-15T15:58:56.577Z,7.03
2019-01-15T16:05:05.189Z,7.93
2019-01-15T16:11:11.437Z,7.63
2019-01-15T16:17:17.770Z,6.83
2019-01-15T16:23:33.824Z,8.83
2019-01-15T16:29:42.845Z,11.30
2019-01-15T16:35:55.086Z,6.70
2019-01-15T16:42:04.152Z,8.37
2019-01-15T16:48:13.279Z,8.73
2019-01-15T16:54:23.405Z,8.07
2019-01-15T17:00:47.567Z,8.53
2019-01-15T17:06:53.752Z,6.07
2019-01-15T17:13:17.744Z,6.23
2019-01-15T17:19:26.624Z,6.27
2019-01-15T17:25:40.091Z,6.67
2019-01-15T17:31:54.828Z,8.67
2019-01-15T17:38:10.090Z,8.10
2019-01-15T17:44:31.152Z,7.83
2019-01-15T17:50:37.376Z,8.20
2019-01-15T17:56:49.343Z,8.50
2019-01-15T18:02:55.508Z,11.23
2019-01-15T18:09:10.508Z,11.17
2019-01-15T18:15:16.689Z,8.00
2019-01-15T18:21:38.582Z,10.30
2019-01-15T18:27:59.314Z,8.97
2019-01-15T18:34:11.690Z,8.03
2019-01-15T18:40:20.568Z,8.07
2019-01-15T18:46:29.423Z,6.90
2019-01-15T18:52:38.144Z,9.03
2019-01-15T18:58:53.184Z,8.73
2019-01-15T19:05:15.515Z,8.90
2019-01-15T19:11:37.645Z,10.20
2019-01-15T19:17:43.833Z,9.00
2019-01-15T19:24:05.909Z,11.67
2019-01-15T19:30:17.337Z,11.07
2019-01-15T19:36:29.251Z,12.77
2019-01-15T19:42:41.357Z,12.03
2019-01-15T19:48:56.200Z,10.30
2019-01-15T19:55:06.583Z,11.60
2019-01-15T20:01:12.938Z,11.87
2019-01-15T20:07:37.398Z,10.73
2019-01-15T20:13:46.550Z,8.60
2019-01-15T20:19:55.763Z,7.43
2019-01-15T20:26:01.938Z,8.97
2019-01-15T20:32:08.231Z,9.30
2019-01-15T20:38:30.325Z,7.40
2019-01-15T20:44:46.522Z,8.07
2019-01-15T20:51:04.554Z,8.97
2019-01-15T20:57:19.411Z,7.47
2019-01-15T21:03:29.239Z,9.07
2019-01-15T21:09:44.209Z,9.60
2019-01-15T21:15:50.414Z,6.70
2019-01-15T21:22:12.503Z,7.53
2019-01-15T21:28:18.685Z,9.60
2019-01-15T21:34:27.547Z,8.70
2019-01-15T21:40:45.749Z,8.47
2019-01-15T21:46:57.672Z,8.47
2019-01-15T21:53:09.907Z,9.17
2019-01-15T21:59:25.220Z,7.90
2019-01-15T22:05:31.401Z,7.93
2019-01-15T22:11:40.267Z,7.50
2019-01-15T22:18:06.092Z,8.03
2019-01-15T22:24:25.269Z,6.50
2019-01-15T22:30:49.696Z,6.50
2019-01-15T22:37:11.707Z,7.17
2019-01-15T22:43:20.782Z,5.47
2019-01-15T22:49:45.070Z,7.40
2019-01-15T22:56:03.245Z,7.20
2019-01-15T23:02:09.566Z,7.10
2019-01-15T23:08:33.681Z,6.07
2019-01-15T23:14:42.708Z,6.73
2019-01-15T23:20:48.963Z,7.17
2019-01-15T23:26:57.924Z,6.33
2019-01-15T23:33:08.302Z,6.37
2019-01-15T23:39:17.173Z,6.17
2019-01-15T23:45:39.205Z,6.03
2019-01-15T23:51:45.412Z,7.70
2019-01-15T23:57:57.568Z,5.70
